Time;durP1;ratioP1;P1;durP2;ratioP2;P2;SDS_P1;SDS_P2;PMS_P1;PMS_P2;Temp;Humidity;BMP_temperature;BMP_pressure;BME280_temperature;BME280_humidity;BME280_pressure;Samples;Min_cycle;Max_cycle;Signal;HPM_P1;HPM_P2
2022/04/30 00:01:43;;;;;;;14.93;11.40;;;;;;;;;;4938355;29;20394;-72
2022/04/30 00:04:17;;;;;;;14.07;11.27;;;;;;;;;;4938374;29;20509;-72
2022/04/30 00:06:49;;;;;;;12.70;10.57;;;;;;;;;;4921143;29;20054;-72
2022/04/30 00:09:17;;;;;;;12.40;10.35;;;;;;;;;;4938202;29;20135;-72
2022/04/30 00:11:55;;;;;;;14.15;10.55;;;;;;;;;;4938033;29;20060;-72
2022/04/30 00:14:25;;;;;;;13.52;11.15;;;;;;;;;;4937493;29;20545;-72
2022/04/30 00:16:56;;;;;;;14.27;10.75;;;;;;;;;;4921473;29;20083;-72
2022/04/30 00:19:28;;;;;;;14.45;10.90;;;;;;;;;;4921708;29;20048;-72
2022/04/30 00:22:00;;;;;;;14.82;11.00;;;;;;;;;;4921201;29;20040;-72
2022/04/30 00:24:35;;;;;;;13.98;10.80;;;;;;;;;;4937306;29;20451;-72
2022/04/30 00:27:10;;;;;;;14.98;11.27;;;;;;;;;;4937853;29;20044;-72
2022/04/30 00:29:39;;;;;;;;;;;;;;;;;;4921109;29;20047;-72
2022/04/30 00:36:11;;;;;;;14.30;11.90;;;;;;;;;;4937608;29;20550;-72
2022/04/30 00:38:43;;;;;;;16.52;12.00;;;;;;;;;;4937744;29;20046;-72
2022/04/30 00:41:10;;;;;;;16.15;12.00;;;;;;;;;;4937589;29;20052;-72
2022/04/30 00:43:46;;;;;;;13.77;11.07;;;;;;;;;;4937758;29;20394;-72
2022/04/30 00:46:23;;;;;;;16.27;12.80;;;;;;;;;;4937572;29;20487;-72
2022/04/30 00:48:57;;;;;;;15.85;12.02;;;;;;;;;;4937354;29;20059;-72
2022/04/30 00:51:27;;;;;;;16.17;11.27;;;;;;;;;;4937491;29;20075;-72
2022/04/30 00:53:57;;;;;;;12.77;10.60;;;;;;;;;;4937466;29;20114;-72
2022/04/30 00:56:50;;;;;;;16.67;11.15;;;;;;;;;;4937370;29;20040;-72
2022/04/30 00:59:20;;;;;;;12.52;10.93;;;;;;;;;;4937109;29;20036;-72
2022/04/30 01:01:50;;;;;;;12.50;10.40;;;;;;;;;;4937055;29;20457;-72
2022/04/30 01:04:37;;;;;;;14.45;10.85;;;;;;;;;;4937443;29;20574;-72
2022/04/30 01:07:11;;;;;;;12.07;10.00;;;;;;;;;;4937367;29;20051;-72
2022/04/30 01:09:45;;;;;;;13.43;10.30;;;;;;;;;;4937107;29;20072;-72
2022/04/30 01:12:15;;;;;;;13.05;10.52;;;;;;;;;;4936497;29;20048;-73
2022/04/30 01:14:43;;;;;;;14.45;10.13;;;;;;;;;;4936863;29;20079;-72
2022/04/30 01:17:13;;;;;;;15.02;10.80;;;;;;;;;;4936953;29;20044;-72
2022/04/30 01:19:43;;;;;;;13.63;10.98;;;;;;;;;;4937540;29;20499;-72
2022/04/30 01:22:14;;;;;;;15.35;11.32;;;;;;;;;;4936397;29;20048;-72
2022/04/30 01:24:47;;;;;;;15.73;12.02;;;;;;;;;;4936821;29;20071;-72
2022/04/30 01:27:22;;;;;;;14.27;11.07;;;;;;;;;;4936805;29;20491;-72
2022/04/30 01:29:52;;;;;;;;;;;;;;;;;;4937274;29;20142;-72
2022/04/30 01:38:10;;;;;;;12.88;10.25;;;;;;;;;;4936621;29;20044;-72
2022/04/30 01:40:38;;;;;;;15.73;11.63;;;;;;;;;;4936701;29;20043;-72
2022/04/30 01:43:11;;;;;;;16.95;11.85;;;;;;;;;;4936111;29;20043;-72
2022/04/30 01:45:46;;;;;;;16.80;11.80;;;;;;;;;;4936601;29;20074;-72
2022/04/30 01:48:14;;;;;;;14.23;11.25;;;;;;;;;;4936778;29;20055;-72
2022/04/30 01:50:44;;;;;;;15.52;11.73;;;;;;;;;;4936191;29;20058;-72
2022/04/30 01:53:14;;;;;;;15.10;11.98;;;;;;;;;;4936509;29;20054;-72
2022/04/30 01:55:43;;;;;;;14.27;11.45;;;;;;;;;;4936293;29;20521;-72
2022/04/30 01:58:23;;;;;;;18.40;12.43;;;;;;;;;;4919083;29;20047;-72
2022/04/30 02:01:07;;;;;;;17.45;12.50;;;;;;;;;;4936569;29;20103;-72
2022/04/30 02:04:02;;;;;;;16.45;11.80;;;;;;;;;;4936037;29;20570;-72
2022/04/30 02:06:55;;;;;;;15.93;11.13;;;;;;;;;;4919337;29;20144;-72
2022/04/30 02:09:29;;;;;;;16.30;11.65;;;;;;;;;;4936412;29;20394;-72
2022/04/30 02:12:01;;;;;;;16.63;12.25;;;;;;;;;;4936136;29;20126;-72
2022/04/30 02:14:30;;;;;;;16.60;12.15;;;;;;;;;;4935730;29;20439;-72
2022/04/30 02:17:03;;;;;;;14.48;11.80;;;;;;;;;;4936189;29;20122;-71
2022/04/30 02:20:18;;;;;;;15.95;12.23;;;;;;;;;;4936202;29;20055;-72
2022/04/30 02:22:45;;;;;;;15.07;11.57;;;;;;;;;;4935674;29;20498;-72
2022/04/30 02:28:09;;;;;;;14.88;12.43;;;;;;;;;;4936358;29;20460;-72
2022/04/30 02:30:38;;;;;;;18.05;12.85;;;;;;;;;;4936037;29;20131;-72
2022/04/30 02:33:15;;;;;;;17.17;12.98;;;;;;;;;;4936231;29;20075;-72
2022/04/30 02:35:44;;;;;;;16.33;12.32;;;;;;;;;;4936027;29;20047;-72
2022/04/30 02:38:13;;;;;;;17.67;12.55;;;;;;;;;;4935596;29;20565;-72
2022/04/30 02:40:47;;;;;;;16.60;12.70;;;;;;;;;;4935822;29;20050;-72
2022/04/30 02:43:18;;;;;;;16.33;12.38;;;;;;;;;;4935143;29;20487;-72
2022/04/30 02:45:50;;;;;;;17.58;12.90;;;;;;;;;;4935830;29;20047;-72
2022/04/30 02:48:24;;;;;;;15.20;12.68;;;;;;;;;;4923644;29;20054;-72
2022/04/30 02:50:55;;;;;;;16.00;12.50;;;;;;;;;;4939508;29;20051;-72
2022/04/30 02:53:47;;;;;;;15.13;11.57;;;;;;;;;;4939631;29;20043;-72
2022/04/30 02:56:20;;;;;;;16.20;11.88;;;;;;;;;;4939552;29;20063;-72
2022/04/30 03:01:37;;;;;;;16.27;13.35;;;;;;;;;;4939435;29;20130;-72
2022/04/30 03:04:41;;;;;;;17.27;12.88;;;;;;;;;;4922399;29;20048;-72
2022/04/30 03:07:13;;;;;;;15.88;12.68;;;;;;;;;;4939265;29;20047;-72
2022/04/30 03:09:42;;;;;;;16.25;12.00;;;;;;;;;;4938938;29;20047;-72
2022/04/30 03:12:11;;;;;;;17.02;13.48;;;;;;;;;;4939375;29;20051;-72
2022/04/30 03:14:45;;;;;;;19.73;12.90;;;;;;;;;;4938833;29;20048;-72
2022/04/30 03:23:07;;;;;;;18.43;13.43;;;;;;;;;;4939152;29;20126;-72
2022/04/30 03:25:35;;;;;;;17.63;13.60;;;;;;;;;;4938533;29;20043;-72
2022/04/30 03:28:27;;;;;;;19.15;13.77;;;;;;;;;;4939017;29;20491;-72
2022/04/30 03:30:57;;;;;;;20.80;13.82;;;;;;;;;;4938970;29;20103;-72
2022/04/30 03:33:27;;;;;;;32.65;21.67;;;;;;;;;;4938811;29;20052;-72
2022/04/30 03:35:56;;;;;;;34.22;23.50;;;;;;;;;;4938878;29;20461;-72
2022/04/30 03:38:25;;;;;;;47.50;32.53;;;;;;;;;;4938591;29;20402;-72
2022/04/30 03:41:02;;;;;;;39.53;26.83;;;;;;;;;;4938927;29;20051;-72
2022/04/30 03:43:31;;;;;;;22.25;16.38;;;;;;;;;;4938594;29;20079;-72
2022/04/30 03:46:05;;;;;;;35.83;25.75;;;;;;;;;;4938728;29;20047;-72
2022/04/30 03:48:34;;;;;;;31.25;22.52;;;;;;;;;;4938491;29;20048;-72
2022/04/30 03:51:05;;;;;;;25.60;17.60;;;;;;;;;;4938627;29;20043;-72
2022/04/30 03:53:35;;;;;;;22.10;17.08;;;;;;;;;;4938624;29;20091;-71
2022/04/30 03:56:04;;;;;;;24.02;17.98;;;;;;;;;;4937945;29;20043;-72
2022/04/30 03:58:32;;;;;;;19.60;13.82;;;;;;;;;;4937898;29;20118;-72
2022/04/30 04:01:02;;;;;;;31.55;22.90;;;;;;;;;;4938424;29;20044;-72
2022/04/30 04:03:36;;;;;;;43.03;29.38;;;;;;;;;;4938276;29;20048;-72
2022/04/30 04:06:05;;;;;;;46.25;31.77;;;;;;;;;;4938169;29;20047;-72
2022/04/30 04:08:37;;;;;;;47.92;30.20;;;;;;;;;;4938256;29;20040;-72
2022/04/30 04:11:10;;;;;;;34.75;23.45;;;;;;;;;;4938336;29;20111;-72
2022/04/30 04:19:46;;;;;;;30.42;19.88;;;;;;;;;;4938294;29;20051;-72
2022/04/30 04:22:20;;;;;;;30.45;19.50;;;;;;;;;;4937611;29;20123;-72
2022/04/30 04:27:58;;;;;;;23.70;18.13;;;;;;;;;;4937772;29;20058;-72
2022/04/30 04:30:29;;;;;;;24.10;17.77;;;;;;;;;;4920508;29;20091;-83
2022/04/30 04:33:08;;;;;;;18.88;14.20;;;;;;;;;;4937862;29;20066;-73
2022/04/30 04:35:36;;;;;;;17.08;14.10;;;;;;;;;;4937812;29;20453;-74
2022/04/30 04:38:12;;;;;;;19.95;15.60;;;;;;;;;;4938271;29;20402;-74
2022/04/30 04:41:06;;;;;;;21.65;16.52;;;;;;;;;;4937681;29;20047;-75
2022/04/30 04:43:38;;;;;;;19.65;14.65;;;;;;;;;;4937761;29;20040;-77
2022/04/30 04:46:11;;;;;;;19.55;14.50;;;;;;;;;;4937458;29;20035;-76
2022/04/30 04:48:39;;;;;;;19.88;15.10;;;;;;;;;;4936787;29;20039;-76
2022/04/30 04:51:07;;;;;;;19.35;15.40;;;;;;;;;;4936954;29;20044;-83
2022/04/30 04:53:35;;;;;;;16.75;14.13;;;;;;;;;;4935596;29;20059;-82
2022/04/30 04:56:06;;;;;;;16.27;12.65;;;;;;;;;;4936688;29;20044;-82
2022/04/30 04:58:34;;;;;;;16.33;12.88;;;;;;;;;;4918253;29;20048;-81
2022/04/30 05:01:02;;;;;;;23.02;16.33;;;;;;;;;;4931875;29;20466;-81
2022/04/30 05:03:31;;;;;;;18.70;13.45;;;;;;;;;;4936994;29;20070;-81
2022/04/30 05:05:59;;;;;;;18.50;12.38;;;;;;;;;;4918279;29;20511;-82
2022/04/30 05:08:28;;;;;;;15.32;11.82;;;;;;;;;;4917864;29;20071;-82
2022/04/30 05:10:55;;;;;;;14.25;11.02;;;;;;;;;;4917711;29;20056;-81
2022/04/30 05:13:25;;;;;;;12.70;10.85;;;;;;;;;;4918171;29;20044;-80
2022/04/30 05:15:55;;;;;;;13.27;11.30;;;;;;;;;;4918065;29;20097;-80
2022/04/30 05:18:23;;;;;;;13.38;11.10;;;;;;;;;;4923696;29;20047;-80
2022/04/30 05:20:51;;;;;;;14.98;11.20;;;;;;;;;;4936745;29;20062;-81
2022/04/30 05:23:21;;;;;;;12.50;10.43;;;;;;;;;;4929746;29;20043;-80
2022/04/30 05:25:50;;;;;;;15.27;10.23;;;;;;;;;;4937035;29;20035;-80
2022/04/30 05:28:20;;;;;;;12.00;10.50;;;;;;;;;;4936541;29;20044;-81
2022/04/30 05:30:47;;;;;;;18.17;14.73;;;;;;;;;;4936357;29;20043;-79
2022/04/30 05:33:22;;;;;;;49.95;34.65;;;;;;;;;;4936474;29;20058;-82
2022/04/30 05:35:49;;;;;;;12.63;9.90;;;;;;;;;;4936855;29;20036;-78
2022/04/30 05:38:19;;;;;;;10.60;8.65;;;;;;;;;;4936022;29;20048;-77
2022/04/30 05:40:48;;;;;;;14.90;12.65;;;;;;;;;;4936458;29;20076;-75
2022/04/30 05:43:18;;;;;;;12.80;10.93;;;;;;;;;;4936436;29;20040;-77
2022/04/30 05:45:50;;;;;;;10.23;8.20;;;;;;;;;;4936459;29;20044;-77
2022/04/30 05:48:21;;;;;;;11.68;10.55;;;;;;;;;;4936300;29;20044;-77
2022/04/30 05:50:51;;;;;;;12.63;10.98;;;;;;;;;;4936724;29;20048;-78
2022/04/30 05:53:20;;;;;;;10.02;8.30;;;;;;;;;;4936326;29;20063;-77
2022/04/30 05:55:49;;;;;;;8.30;7.50;;;;;;;;;;4936262;29;20050;-77
2022/04/30 05:58:36;;;;;;;7.60;6.78;;;;;;;;;;4936478;29;20075;-76
2022/04/30 06:01:06;;;;;;;7.07;6.35;;;;;;;;;;4936264;29;20063;-79
2022/04/30 06:03:40;;;;;;;9.18;7.10;;;;;;;;;;4935648;29;20508;-77
2022/04/30 06:06:14;;;;;;;6.85;5.78;;;;;;;;;;4936336;29;20067;-74
2022/04/30 06:11:38;;;;;;;9.05;7.45;;;;;;;;;;4935956;29;20063;-75
2022/04/30 06:14:31;;;;;;;7.47;5.65;;;;;;;;;;4935739;29;20054;-74
2022/04/30 06:17:24;;;;;;;8.85;6.55;;;;;;;;;;4936601;29;20082;-74
2022/04/30 06:20:23;;;;;;;6.50;5.60;;;;;;;;;;4936064;29;20474;-75
2022/04/30 06:23:16;;;;;;;5.35;4.85;;;;;;;;;;4936171;29;20044;-76
2022/04/30 06:26:09;;;;;;;5.75;5.15;;;;;;;;;;4936000;29;20047;-76
2022/04/30 06:28:41;;;;;;;5.53;4.88;;;;;;;;;;4936639;29;20068;-75
2022/04/30 06:31:16;;;;;;;10.88;6.95;;;;;;;;;;4936227;29;20047;-75
2022/04/30 06:33:44;;;;;;;5.47;4.20;;;;;;;;;;4936182;29;20410;-75
2022/04/30 06:36:15;;;;;;;6.60;4.13;;;;;;;;;;4936145;29;20043;-77
2022/04/30 06:38:42;;;;;;;5.43;3.90;;;;;;;;;;4928783;29;20036;-76
2022/04/30 06:41:10;;;;;;;7.15;6.43;;;;;;;;;;4926005;29;20048;-77
2022/04/30 06:43:38;;;;;;;6.85;5.80;;;;;;;;;;4935700;29;20047;-77
2022/04/30 06:46:06;;;;;;;5.63;5.07;;;;;;;;;;4935728;29;20048;-77
2022/04/30 06:48:34;;;;;;;5.32;4.40;;;;;;;;;;4935466;29;20052;-76
2022/04/30 06:51:01;;;;;;;5.85;4.57;;;;;;;;;;4935606;29;20075;-76
2022/04/30 06:59:02;;;;;;;5.10;4.60;;;;;;;;;;4935288;29;20071;-77
2022/04/30 07:02:31;;;;;;;5.05;4.55;;;;;;;;;;4935674;29;20113;-76
2022/04/30 07:04:29;;;;;;;6.13;4.35;;;;;;;;;;4925939;29;20360;-77
2022/04/30 07:07:00;;;;;;;5.32;4.72;;;;;;;;;;4935030;29;20059;-76
2022/04/30 07:09:33;;;;;;;6.53;4.70;;;;;;;;;;4935523;29;20075;-76
2022/04/30 07:12:03;;;;;;;5.07;4.57;;;;;;;;;;4934861;29;20048;-77
2022/04/30 07:14:35;;;;;;;6.65;4.68;;;;;;;;;;4936147;29;20054;-76
2022/04/30 07:17:06;;;;;;;6.45;4.60;;;;;;;;;;4936078;29;20371;-76
2022/04/30 07:19:35;;;;;;;5.13;4.60;;;;;;;;;;4935704;29;20048;-76
2022/04/30 07:22:08;;;;;;;6.00;4.50;;;;;;;;;;4935716;29;20051;-76
2022/04/30 07:24:51;;;;;;;6.68;4.80;;;;;;;;;;4935304;29;20173;-76
2022/04/30 07:27:18;;;;;;;5.03;4.20;;;;;;;;;;4935424;29;20095;-77
2022/04/30 07:29:57;;;;;;;4.90;3.50;;;;;;;;;;4935506;29;20056;-77
2022/04/30 07:32:24;;;;;;;3.80;3.30;;;;;;;;;;4936758;29;20036;-76
2022/04/30 07:34:54;;;;;;;5.72;3.35;;;;;;;;;;4938036;29;20065;-76
2022/04/30 07:37:21;;;;;;;5.38;3.63;;;;;;;;;;4938002;29;20082;-78
2022/04/30 07:39:56;;;;;;;4.93;3.28;;;;;;;;;;4936326;29;20046;-76
2022/04/30 07:42:23;;;;;;;3.90;3.35;;;;;;;;;;4938049;29;20082;-77
2022/04/30 07:44:52;;;;;;;4.90;3.45;;;;;;;;;;4938865;29;20047;-77
2022/04/30 07:47:22;;;;;;;4.38;3.35;;;;;;;;;;4938893;29;20126;-78
2022/04/30 07:49:51;;;;;;;6.20;3.40;;;;;;;;;;4938809;29;20123;-77
2022/04/30 07:52:19;;;;;;;4.82;3.20;;;;;;;;;;4938690;29;20076;-77
2022/04/30 07:54:52;;;;;;;4.60;3.20;;;;;;;;;;4938525;29;20407;-78
2022/04/30 07:57:20;;;;;;;4.18;3.10;;;;;;;;;;4938032;29;20116;-77
2022/04/30 07:59:47;;;;;;;6.38;3.35;;;;;;;;;;4938108;29;20095;-77
2022/04/30 08:02:19;;;;;;;4.97;3.00;;;;;;;;;;4937521;29;20078;-77
2022/04/30 08:04:59;;;;;;;4.80;3.05;;;;;;;;;;4937748;29;20082;-77
2022/04/30 08:07:26;;;;;;;4.32;3.35;;;;;;;;;;4934141;29;20046;-76
2022/04/30 08:09:54;;;;;;;4.45;3.45;;;;;;;;;;4934495;29;20043;-75
2022/04/30 08:12:27;;;;;;;4.07;3.22;;;;;;;;;;4937345;29;20147;-75
2022/04/30 08:14:54;;;;;;;3.33;2.95;;;;;;;;;;4938725;29;20549;-75
2022/04/30 08:17:46;;;;;;;4.10;3.00;;;;;;;;;;4937957;29;20637;-76
2022/04/30 08:20:14;;;;;;;2.92;2.60;;;;;;;;;;4938019;29;20040;-76
2022/04/30 08:23:06;;;;;;;4.20;2.83;;;;;;;;;;4937923;29;20778;-76
2022/04/30 08:25:59;;;;;;;4.63;2.80;;;;;;;;;;4937976;29;20107;-76
2022/04/30 08:28:52;;;;;;;4.70;3.25;;;;;;;;;;4938059;29;20122;-75
2022/04/30 08:31:24;;;;;;;3.83;2.78;;;;;;;;;;4937667;29;20406;-78
2022/04/30 08:33:53;;;;;;;7.68;3.33;;;;;;;;;;4937743;29;20551;-76
2022/04/30 08:36:24;;;;;;;5.45;4.03;;;;;;;;;;4936995;29;20051;-77
2022/04/30 08:38:51;;;;;;;4.30;3.08;;;;;;;;;;4937646;29;20055;-78
2022/04/30 08:41:44;;;;;;;5.43;3.03;;;;;;;;;;4937416;29;20047;-76
2022/04/30 08:44:37;;;;;;;4.18;3.08;;;;;;;;;;4936246;29;20138;-76
2022/04/30 08:47:05;;;;;;;3.20;2.70;;;;;;;;;;4937093;29;20071;-76
2022/04/30 08:49:35;;;;;;;5.93;3.03;;;;;;;;;;4936365;29;20044;-74
2022/04/30 08:52:07;;;;;;;4.53;2.80;;;;;;;;;;4937642;29;20122;-84
2022/04/30 08:54:35;;;;;;;5.63;3.15;;;;;;;;;;4937571;29;20044;-85
2022/04/30 08:57:28;;;;;;;4.90;3.72;;;;;;;;;;4937429;29;20594;-83
2022/04/30 08:59:56;;;;;;;3.10;2.60;;;;;;;;;;4936957;29;20486;-75
2022/04/30 09:02:25;;;;;;;3.65;2.40;;;;;;;;;;4937451;29;20066;-75
2022/04/30 09:04:58;;;;;;;4.13;2.60;;;;;;;;;;4937416;29;20170;-75
2022/04/30 09:07:27;;;;;;;5.13;2.53;;;;;;;;;;4937238;29;20048;-75
2022/04/30 09:10:00;;;;;;;8.75;5.55;;;;;;;;;;4936456;29;20047;-75
2022/04/30 09:12:33;;;;;;;6.13;4.10;;;;;;;;;;4918259;29;20048;-75
2022/04/30 09:15:13;;;;;;;4.57;3.00;;;;;;;;;;4918290;29;20100;-75
2022/04/30 09:17:42;;;;;;;3.47;2.55;;;;;;;;;;4918357;29;20112;-74
2022/04/30 09:20:18;;;;;;;3.20;2.60;;;;;;;;;;4918032;29;20406;-74
2022/04/30 09:22:50;;;;;;;4.18;2.70;;;;;;;;;;4918107;29;20127;-75
2022/04/30 09:25:20;;;;;;;3.40;2.30;;;;;;;;;;4932307;29;20108;-74
2022/04/30 09:28:04;;;;;;;4.07;2.88;;;;;;;;;;4917507;29;20044;-74
2022/04/30 09:30:33;;;;;;;6.35;2.60;;;;;;;;;;4917290;29;20058;-74
2022/04/30 09:33:03;;;;;;;3.53;2.00;;;;;;;;;;4917749;29;20044;-75
2022/04/30 09:38:25;;;;;;;5.05;3.05;;;;;;;;;;4906075;29;20048;-75
2022/04/30 09:40:57;;;;;;;3.25;2.13;;;;;;;;;;4901693;29;20056;-75
2022/04/30 09:43:33;;;;;;;2.55;2.00;;;;;;;;;;4898783;29;20055;-75
2022/04/30 09:46:08;;;;;;;3.70;2.60;;;;;;;;;;4898636;29;20045;-76
2022/04/30 09:54:30;;;;;;;4.00;2.85;;;;;;;;;;4899113;29;20049;-76
2022/04/30 09:56:59;;;;;;;4.03;2.80;;;;;;;;;;4899822;29;20045;-76
2022/04/30 09:59:27;;;;;;;3.83;2.60;;;;;;;;;;4898482;29;20052;-75
2022/04/30 10:02:19;;;;;;;2.83;2.20;;;;;;;;;;4898501;29;20376;-76
2022/04/30 10:04:51;;;;;;;2.47;2.20;;;;;;;;;;4898267;29;20507;-75
2022/04/30 10:07:21;;;;;;;3.17;2.20;;;;;;;;;;4911805;29;20096;-75
2022/04/30 10:10:04;;;;;;;4.43;2.42;;;;;;;;;;4917324;29;20043;-75
2022/04/30 10:12:55;;;;;;;3.17;2.10;;;;;;;;;;4916959;29;20052;-75
2022/04/30 10:15:23;;;;;;;3.28;1.80;;;;;;;;;;4913883;29;20128;-75
2022/04/30 10:18:00;;;;;;;4.25;2.00;;;;;;;;;;4916316;29;20048;-75
2022/04/30 10:20:34;;;;;;;3.45;2.10;;;;;;;;;;4917452;29;20048;-75
2022/04/30 10:23:07;;;;;;;2.05;1.75;;;;;;;;;;4917031;29;20503;-75
2022/04/30 10:25:41;;;;;;;3.08;2.00;;;;;;;;;;4917263;29;20099;-75
2022/04/30 10:28:17;;;;;;;4.03;2.05;;;;;;;;;;4917010;29;20111;-76
2022/04/30 10:30:57;;;;;;;2.75;1.90;;;;;;;;;;4917308;29;20048;-75
2022/04/30 10:33:27;;;;;;;3.40;1.95;;;;;;;;;;4917217;29;20040;-76
2022/04/30 10:36:04;;;;;;;2.15;1.85;;;;;;;;;;4917000;29;20091;-75
2022/04/30 10:38:32;;;;;;;3.67;2.00;;;;;;;;;;4916996;29;20040;-75
2022/04/30 10:41:10;;;;;;;3.17;2.40;;;;;;;;;;4916904;29;20040;-75
2022/04/30 10:43:40;;;;;;;4.18;2.00;;;;;;;;;;4917251;29;20413;-75
2022/04/30 10:46:13;;;;;;;3.70;2.60;;;;;;;;;;4916073;29;20056;-75
2022/04/30 10:48:41;;;;;;;8.52;6.90;;;;;;;;;;4916399;29;20051;-75
2022/04/30 10:51:10;;;;;;;5.97;2.92;;;;;;;;;;4916575;29;20048;-75
2022/04/30 10:53:45;;;;;;;3.60;2.60;;;;;;;;;;4916738;29;20048;-75
2022/04/30 10:56:14;;;;;;;3.65;2.20;;;;;;;;;;4916244;29;20044;-75
2022/04/30 10:58:41;;;;;;;3.35;2.20;;;;;;;;;;4916333;29;20614;-75
2022/04/30 11:01:16;;;;;;;2.92;2.25;;;;;;;;;;4916619;29;20388;-76
2022/04/30 11:03:48;;;;;;;3.47;1.90;;;;;;;;;;4930869;29;20095;-75
2022/04/30 11:06:20;;;;;;;3.55;2.60;;;;;;;;;;4930872;29;20087;-76
2022/04/30 11:09:05;;;;;;;3.22;2.10;;;;;;;;;;4919707;29;20052;-75
2022/04/30 11:11:35;;;;;;;2.83;1.98;;;;;;;;;;4931730;29;20059;-75
2022/04/30 11:14:05;;;;;;;2.60;1.98;;;;;;;;;;4939172;29;20146;-75
2022/04/30 11:16:38;;;;;;;2.90;2.05;;;;;;;;;;4922204;29;20103;-75
2022/04/30 11:19:10;;;;;;;3.60;2.22;;;;;;;;;;4938140;29;20051;-75
2022/04/30 11:21:59;;;;;;;3.15;2.10;;;;;;;;;;4938579;29;20047;-76
2022/04/30 11:24:28;;;;;;;4.50;2.17;;;;;;;;;;4937408;29;20351;-76
2022/04/30 11:26:58;;;;;;;2.42;2.10;;;;;;;;;;4936123;29;20040;-75
2022/04/30 11:29:27;;;;;;;2.42;2.22;;;;;;;;;;4938573;29;20431;-75
2022/04/30 11:31:57;;;;;;;4.10;2.20;;;;;;;;;;4938839;29;20598;-75
2022/04/30 11:34:26;;;;;;;2.72;2.20;;;;;;;;;;4939315;29;20040;-75
2022/04/30 11:36:59;;;;;;;2.35;2.10;;;;;;;;;;4938896;29;20380;-74
2022/04/30 11:39:51;;;;;;;2.30;2.10;;;;;;;;;;4934685;29;20048;-75
2022/04/30 11:42:44;;;;;;;5.80;2.97;;;;;;;;;;4920242;29;20518;-74
2022/04/30 11:45:12;;;;;;;3.85;2.00;;;;;;;;;;4922097;29;20044;-75
2022/04/30 11:47:39;;;;;;;3.28;2.33;;;;;;;;;;4938464;29;20058;-75
2022/04/30 11:50:11;;;;;;;1.98;1.80;;;;;;;;;;4939549;29;20360;-75
2022/04/30 11:52:39;;;;;;;2.17;1.75;;;;;;;;;;4937481;29;20538;-75
2022/04/30 11:55:12;;;;;;;2.40;1.95;;;;;;;;;;4938683;29;20047;-76
2022/04/30 11:57:44;;;;;;;3.10;1.77;;;;;;;;;;4938488;29;20388;-74
2022/04/30 12:00:12;;;;;;;2.55;1.73;;;;;;;;;;4938802;29;20127;-75
2022/04/30 12:02:42;;;;;;;3.28;2.30;;;;;;;;;;4938608;29;20047;-74
2022/04/30 12:05:10;;;;;;;3.53;1.90;;;;;;;;;;4938887;29;20082;-75
2022/04/30 12:07:43;;;;;;;2.30;1.90;;;;;;;;;;4938345;29;20444;-74
2022/04/30 12:10:23;;;;;;;3.97;2.00;;;;;;;;;;4934871;29;20411;-75
2022/04/30 12:12:55;;;;;;;2.25;1.70;;;;;;;;;;4938668;29;20051;-75
2022/04/30 12:15:26;;;;;;;2.63;2.08;;;;;;;;;;4938825;29;20052;-75
2022/04/30 12:27:02;;;;;;;3.03;2.15;;;;;;;;;;4919072;29;20048;-73
2022/04/30 12:29:32;;;;;;;2.50;1.98;;;;;;;;;;4918618;29;20036;-73
2022/04/30 12:32:07;;;;;;;3.92;2.47;;;;;;;;;;4918766;29;20051;-73
2022/04/30 12:34:39;;;;;;;3.05;2.38;;;;;;;;;;4918640;29;20139;-73
2022/04/30 12:37:09;;;;;;;1.70;1.60;;;;;;;;;;4918859;29;20051;-74
2022/04/30 12:39:42;;;;;;;6.75;4.95;;;;;;;;;;4918853;29;20075;-73
2022/04/30 12:42:11;;;;;;;2.43;2.13;;;;;;;;;;4918237;29;20048;-74
2022/04/30 12:44:38;;;;;;;2.00;1.80;;;;;;;;;;4920719;29;20290;-74
2022/04/30 12:47:07;;;;;;;7.68;2.20;;;;;;;;;;4918322;29;20091;-74
2022/04/30 12:49:36;;;;;;;3.28;2.20;;;;;;;;;;4921212;29;20040;-75
2022/04/30 12:52:06;;;;;;;2.35;1.90;;;;;;;;;;4918737;29;20475;-75
2022/04/30 12:54:36;;;;;;;3.25;2.30;;;;;;;;;;4918613;29;20502;-75
2022/04/30 12:57:07;;;;;;;2.45;1.98;;;;;;;;;;4918511;29;20055;-75
2022/04/30 12:59:37;;;;;;;11.55;4.30;;;;;;;;;;4918251;29;20040;-75
2022/04/30 13:02:07;;;;;;;4.28;3.65;;;;;;;;;;4918764;29;20099;-75
2022/04/30 13:04:36;;;;;;;5.63;4.18;;;;;;;;;;4918587;29;20139;-75
2022/04/30 13:07:06;;;;;;;3.33;2.30;;;;;;;;;;4918379;29;20059;-81
2022/04/30 13:15:35;;;;;;;2.08;1.63;;;;;;;;;;4900745;29;20395;-80
2022/04/30 13:24:59;;;;;;;3.77;2.37;;;;;;;;;;4881761;29;20442;-77
2022/04/30 13:27:36;;;;;;;8.52;5.93;;;;;;;;;;4918349;29;20337;-80
2022/04/30 13:30:03;;;;;;;6.95;4.47;;;;;;;;;;4917416;29;20060;-79
2022/04/30 13:36:33;;;;;;;2.42;1.83;;;;;;;;;;4917668;29;20043;-79
2022/04/30 13:39:04;;;;;;;2.72;2.00;;;;;;;;;;4917341;29;20108;-80
2022/04/30 13:41:32;;;;;;;5.25;2.00;;;;;;;;;;4900753;29;20555;-79
2022/04/30 13:44:26;;;;;;;5.05;2.65;;;;;;;;;;4917121;29;20111;-78
2022/04/30 13:46:53;;;;;;;4.05;2.40;;;;;;;;;;4917244;29;20051;-79
2022/04/30 13:49:46;;;;;;;2.45;1.83;;;;;;;;;;4917421;29;20056;-80
2022/04/30 13:52:40;;;;;;;3.83;1.90;;;;;;;;;;4917280;29;20092;-79
2022/04/30 13:55:12;;;;;;;3.20;1.70;;;;;;;;;;4918901;29;20131;-79
2022/04/30 13:57:40;;;;;;;6.22;3.70;;;;;;;;;;4926407;29;20044;-80
2022/04/30 14:00:10;;;;;;;7.05;4.30;;;;;;;;;;4934175;29;20047;-79
2022/04/30 14:02:43;;;;;;;3.38;2.10;;;;;;;;;;4936338;29;20498;-78
2022/04/30 14:05:11;;;;;;;3.55;2.55;;;;;;;;;;4933894;29;20486;-79
2022/04/30 14:07:39;;;;;;;2.92;2.30;;;;;;;;;;4926080;29;20053;-79
2022/04/30 14:10:07;;;;;;;9.60;5.80;;;;;;;;;;4929355;29;20052;-79
2022/04/30 14:14:55;;;;;;;3.45;2.40;;;;;;;;;;4932045;29;20130;-79
2022/04/30 14:15:43;;;;;;;3.80;2.10;;;;;;;;;;4923198;29;20035;-79
2022/04/30 14:18:24;;;;;;;2.40;2.20;;;;;;;;;;4931255;29;20134;-81
2022/04/30 14:24:03;;;;;;;6.13;3.63;;;;;;;;;;4936133;29;20055;-78
2022/04/30 14:27:16;;;;;;;3.45;2.30;;;;;;;;;;4935443;29;20134;-79
2022/04/30 14:30:47;;;;;;;4.13;2.22;;;;;;;;;;4909797;29;20517;-78
2022/04/30 14:33:21;;;;;;;3.45;2.40;;;;;;;;;;4935991;29;20447;-78
2022/04/30 14:35:49;;;;;;;2.65;2.20;;;;;;;;;;4936027;29;20123;-77
2022/04/30 14:38:18;;;;;;;3.83;2.35;;;;;;;;;;4935736;29;20075;-80
2022/04/30 14:40:48;;;;;;;5.38;2.95;;;;;;;;;;4935862;29;20047;-77
2022/04/30 14:43:16;;;;;;;3.35;2.33;;;;;;;;;;4938770;29;20095;-78
2022/04/30 14:45:48;;;;;;;3.80;2.90;;;;;;;;;;4939709;29;20044;-80
2022/04/30 14:48:20;;;;;;;5.07;2.45;;;;;;;;;;4935500;29;20131;-79
2022/04/30 14:50:48;;;;;;;3.42;2.20;;;;;;;;;;4927001;29;20036;-77
2022/04/30 14:53:25;;;;;;;6.05;3.03;;;;;;;;;;4920896;29;20040;-79
2022/04/30 14:55:56;;;;;;;3.72;3.00;;;;;;;;;;4920522;29;20525;-78
2022/04/30 14:58:44;;;;;;;6.32;3.80;;;;;;;;;;4919299;29;20048;-79
2022/04/30 15:01:11;;;;;;;3.45;2.85;;;;;;;;;;4920392;29;20056;-79
2022/04/30 15:03:39;;;;;;;5.45;4.00;;;;;;;;;;4920168;29;20056;-77
2022/04/30 15:06:35;;;;;;;6.82;4.30;;;;;;;;;;4922260;29;20412;-79
2022/04/30 15:09:08;;;;;;;;;;;;;;;;;;4922181;29;20048;-77
2022/04/30 15:11:40;;;;;;;4.38;2.60;;;;;;;;;;4937719;29;19961;-78
2022/04/30 15:14:07;;;;;;;5.50;3.17;;;;;;;;;;4935770;29;20502;-78
2022/04/30 15:16:37;;;;;;;7.40;4.40;;;;;;;;;;4933095;29;20086;-79
2022/04/30 15:19:05;;;;;;;4.80;3.00;;;;;;;;;;4935178;29;20051;-78
2022/04/30 15:21:57;;;;;;;3.22;2.63;;;;;;;;;;4938906;29;20130;-78
2022/04/30 15:24:58;;;;;;;4.00;2.75;;;;;;;;;;4920653;29;20103;-79
2022/04/30 15:27:52;;;;;;;2.78;2.13;;;;;;;;;;4936397;29;20052;-79
2022/04/30 15:30:19;;;;;;;6.25;2.60;;;;;;;;;;4919032;29;20403;-78
2022/04/30 15:32:52;;;;;;;2.78;2.50;;;;;;;;;;4919975;29;20041;-77
2022/04/30 15:35:21;;;;;;;3.50;2.42;;;;;;;;;;4919964;29;20048;-78
2022/04/30 15:37:51;;;;;;;2.80;2.50;;;;;;;;;;4920141;29;20040;-79
2022/04/30 15:40:21;;;;;;;3.85;2.30;;;;;;;;;;4902999;29;20080;-79
2022/04/30 15:43:00;;;;;;;5.55;3.08;;;;;;;;;;4919615;29;20048;-78
2022/04/30 15:51:31;;;;;;;5.57;4.43;;;;;;;;;;4920000;29;20439;-83
2022/04/30 15:54:03;;;;;;;3.22;2.40;;;;;;;;;;4931134;29;20043;-83
2022/04/30 15:56:45;;;;;;;3.45;2.45;;;;;;;;;;4938765;29;20044;-83
2022/04/30 15:59:27;;;;;;;5.03;3.90;;;;;;;;;;4935768;29;20055;-82
2022/04/30 16:02:01;;;;;;;9.50;6.65;;;;;;;;;;4918713;29;20139;-83
2022/04/30 16:04:31;;;;;;;13.23;7.78;;;;;;;;;;4919377;29;20052;-81
2022/04/30 16:07:05;;;;;;;3.50;2.55;;;;;;;;;;4919643;29;20068;-76
2022/04/30 16:10:04;;;;;;;5.63;2.55;;;;;;;;;;4919216;29;20073;-83
2022/04/30 16:12:35;;;;;;;6.65;4.57;;;;;;;;;;4918913;29;20080;-81
2022/04/30 16:15:05;;;;;;;7.57;5.53;;;;;;;;;;4903373;29;20067;-81
2022/04/30 16:17:40;;;;;;;7.20;5.18;;;;;;;;;;4918431;29;20111;-82
2022/04/30 16:20:36;;;;;;;5.20;4.07;;;;;;;;;;4919130;29;20051;-81
2022/04/30 16:23:18;;;;;;;6.40;4.90;;;;;;;;;;4931515;29;20079;-80
2022/04/30 16:25:56;;;;;;;7.03;5.10;;;;;;;;;;4937716;29;20130;-80
2022/04/30 16:28:40;;;;;;;6.40;3.73;;;;;;;;;;4933998;29;20048;-79
2022/04/30 16:31:11;;;;;;;5.22;3.63;;;;;;;;;;4920836;29;20495;-82
2022/04/30 16:33:39;;;;;;;9.43;3.40;;;;;;;;;;4937632;29;20044;-81
2022/04/30 16:36:08;;;;;;;5.32;3.65;;;;;;;;;;4923583;29;20063;-81
2022/04/30 16:38:38;;;;;;;5.65;3.90;;;;;;;;;;4922918;29;20064;-79